Flight Track Log - Related Links

Times and Time Zones

All times are in EDT time to prevent confusion due to time zone crossing. See the WIG7417 flight status page for this flight to view local times or setup timezone preferences in your user account.

Time Position Orientation Groundspeed Altitude Reporting Facility
EDT Latitude Longitude Course Direction KTS MPH feet Rate Location/Type
Tue 07:36:51 PM 44.6761 -73.6136 235° Southwest 119 137 4,100  Level Boston Center
Tue 07:37:50 PM 44.6550 -73.6481 229° Southwest 119 137 4,900 857 Climbing Boston Center
Tue 07:38:50 PM 44.6358 -73.6800 230° Southwest 119 137 5,800 893 Climbing Boston Center
Tue 07:39:00 PM 44.5210 -73.6748 235° Southwest  Level FlightAware Approximate
Tue 07:39:51 PM 44.6147 -73.7144 229° Southwest 119 137 6,700  Level Boston Center
Tue 07:40:00 PM 44.5022 -73.7124 235° Southwest  Level FlightAware Approximate
Tue 07:40:52 PM 44.5936 -73.7461 227° Southwest 119 137 7,400  Level Boston Center
Tue 07:41:00 PM 44.4834 -73.7500 235° Southwest  Level FlightAware Approximate
Tue 07:41:49 PM 44.5744 -73.7778 230° Southwest 119 137 8,200  Level Boston Center
Tue 07:42:00 PM 44.4646 -73.7876 235° Southwest  Level FlightAware Approximate
Tue 07:42:50 PM 44.5553 -73.8122 232° Southwest 119 137 9,000  Level Boston Center
Tue 07:43:50 PM 44.5342 -73.8436 227° Southwest 119 137 9,800 545 Climbing Boston Center
Tue 07:44:51 PM 44.5106 -73.8839 231° Southwest 119 137 10,100 148 Climbing Boston Center
Tue 07:45:52 PM 44.4850 -73.9297 232° Southwest 143 165 10,100  Level Boston Center
Tue 07:46:49 PM 44.4575 -73.9728 228° Southwest 150 173 10,100  Level Boston Center
Tue 07:47:49 PM 44.4297 -74.0158 228° Southwest 155 178 10,100  Level Boston Center
Tue 07:48:50 PM 44.4064 -74.0558 231° Southwest 155 178 10,100  Level Boston Center
Tue 07:49:50 PM 44.3786 -74.0986 228° Southwest 155 178 10,100 -50 Level Boston Center
Tue 07:50:51 PM 44.3531 -74.1386 228° Southwest 155 178 10,000 -50 Descending Boston Center
Tue 07:51:51 PM 44.3272 -74.1814 230° Southwest 155 178 10,000  Level Boston Center
Tue 07:52:52 PM 44.2997 -74.2239 228° Southwest 155 178 10,000  Level Boston Center
Tue 07:53:49 PM 44.2739 -74.2667 230° Southwest 155 178 10,000  Level Boston Center
Tue 07:54:51 PM 44.2483 -74.3094 230° Southwest 155 178 10,000  Level Boston Center
Tue 07:55:49 PM 44.2267 -74.3464 231° Southwest 160 184 10,000  Level Boston Center
Tue 07:56:49 PM 44.1947 -74.3975 229° Southwest 160 184 10,000  Level Boston Center
Tue 07:57:50 PM 44.1667 -74.4428 229° Southwest 160 184 10,000  Level Boston Center
Tue 07:58:50 PM 44.1389 -74.4883 230° Southwest 160 184 10,000 -50 Level Boston Center
Tue 07:59:51 PM 44.1131 -74.5308 230° Southwest 160 184 9,900 -50 Descending Boston Center
Tue 08:00:51 PM 44.0853 -74.5761 230° Southwest 160 184 9,900  Level Boston Center
Tue 08:01:49 PM 44.0575 -74.6156 226° Southwest 155 178 9,900  Level Boston Center
Tue 08:02:50 PM 44.0314 -74.6608 231° Southwest 155 178 9,900  Level Boston Center
Tue 08:03:50 PM 44.0056 -74.7089 233° Southwest 160 184 9,900  Level Boston Center
Tue 08:04:51 PM 43.9778 -74.7481 225° Southwest 154 177 9,900 49 Level Boston Center
Tue 08:05:52 PM 43.9497 -74.7933 229° Southwest 154 177 10,000 50 Climbing Boston Center
Tue 08:06:50 PM 43.9217 -74.8383 229° Southwest 160 184 10,000 -50 Level Boston Center
Tue 08:07:51 PM 43.8936 -74.8833 229° Southwest 160 184 9,900  Descending Boston Center
Tue 08:08:49 PM 43.8675 -74.9283 231° Southwest 160 184 10,000  Climbing Boston Center
Tue 08:09:34 PM 43.8503 -74.9536 227° Southwest 155 178 9,900 -50 Descending Boston Center
Tue 08:10:49 PM 43.8114 -75.0181 230° Southwest 160 184 9,900  Level Boston Center
Tue 08:11:50 PM 43.7833 -75.0628 229° Southwest 160 184 9,900  Level Boston Center
Tue 08:11:56 PM 43.7833 -75.0628 229° Southwest 154 177 9,900  Level Boston Center
Tue 08:12:51 PM 43.7553 -75.1047 227° Southwest 160 184 9,900 52 Level Boston Center
Tue 08:13:51 PM 43.7269 -75.1581 234° Southwest 155 178 10,000  Climbing Boston Center
Tue 08:14:49 PM 43.6989 -75.1969 225° Southwest 160 184 9,900 -50 Descending Boston Center
Tue 08:15:50 PM 43.6728 -75.2389 229° Southwest 160 184 9,900  Level Boston Center
Tue 08:16:50 PM 43.6447 -75.2864 231° Southwest 160 184 9,900  Level Boston Center
Tue 08:17:51 PM 43.6164 -75.3311 229° Southwest 160 184 9,900  Level Boston Center
Tue 08:18:51 PM 43.5883 -75.3728 227° Southwest 160 184 9,900 -545 Level Boston Center
Tue 08:19:52 PM 43.5617 -75.4286 237° Southwest 166 191 8,800 -1,078 Descending Boston Center
Tue 08:20:59 PM 43.5286 -75.4986 237° Southwest 186 214 7,600 -864 Descending Boston Center
Tue 08:21:50 PM 43.5067 -75.5406 234° Southwest 179 206 7,100 -643 Descending Boston Center
Tue 08:22:51 PM 43.4803 -75.5936 236° Southwest 179 206 6,400 -605 Descending Boston Center
Tue 08:23:49 PM 43.4517 -75.6436 232° Southwest 179 206 5,900 -173 Descending Boston Center
Tue 08:25:10 PM 43.4186 -75.7047 233° Southwest 144 166 6,000 42 Climbing Boston Center
Tue 08:26:11 PM 43.3967 -75.7492 236° Southwest 140 161 6,000  Level Boston Center
Tue 08:27:11 PM 43.3722 -75.7964 235° Southwest 145 167 6,000  Level Boston Center
Tue 08:28:12 PM 43.3500 -75.8439 237° Southwest 144 166 6,000  Level Boston Center
Tue 08:29:12 PM 43.3278 -75.8883 236° Southwest 142 163 6,000  Level Boston Center
Tue 08:30:11 PM 43.3056 -75.9328 236° Southwest 142 163 6,000 -190 Level Boston Center
Tue 08:31:18 PM 43.2792 -75.9769 231° Southwest 145 167 5,600 -709 Descending Boston Center
Tue 08:32:18 PM 43.2606 -76.0414 248° West 174 200 4,500 -1,041 Descending Boston Center
Tue 08:33:19 PM 43.2442 -76.1031 250° West 163 188 3,500 -726 Descending Boston Center
Tue 08:34:22 PM 43.2278 -76.1564 247° West 157 181 3,000 -231 Descending Boston Center
Tue 08:35:29 PM 43.2031 -76.2089 237° Southwest 136 157 3,000 -99 Level Boston Center
Tue 08:36:23 PM 43.1872 -76.2422 237° Southwest 128 147 2,800 -333 Descending Boston Center
Tue 08:37:17 PM 43.1536 -76.2514 191° South 139 160 2,400 -496 Descending Boston Center
Tue 08:38:24 PM 43.1169 -76.2264 154° Southeast 120 138 1,800 -496 Descending Boston Center
Tue 08:39:18 PM 43.1058 -76.1886 112° Southeast 127 146 1,400 -444 Descending Boston Center

Login

Don't have an account? Register now (free) for customized features, flight alerts, and more!